createdAt,value
2018-06-30T00:00:27.486Z,963.84
2018-06-30T00:01:27.496Z,963.84
2018-06-30T00:02:27.576Z,963.84
2018-06-30T00:03:27.525Z,963.85
2018-06-30T00:04:27.503Z,963.87
2018-06-30T00:05:27.508Z,963.87
2018-06-30T00:06:27.504Z,963.84
2018-06-30T00:07:27.531Z,963.82
2018-06-30T00:08:27.543Z,963.87
2018-06-30T00:09:27.513Z,963.87
2018-06-30T00:10:27.547Z,963.83
2018-06-30T00:11:27.528Z,963.86
2018-06-30T00:12:27.525Z,963.86
2018-06-30T00:13:27.526Z,963.85
2018-06-30T00:14:27.530Z,963.85
2018-06-30T00:15:27.535Z,963.87
2018-06-30T00:16:27.534Z,963.85
2018-06-30T00:17:27.563Z,963.85
2018-06-30T00:18:27.544Z,963.86
2018-06-30T00:19:27.563Z,963.80
2018-06-30T00:20:27.590Z,963.80
2018-06-30T00:21:27.552Z,963.82
2018-06-30T00:22:27.561Z,963.82
2018-06-30T00:23:27.575Z,963.84
2018-06-30T00:24:27.561Z,963.82
2018-06-30T00:25:27.567Z,963.85
2018-06-30T00:26:27.567Z,963.86
2018-06-30T00:27:27.574Z,963.88
2018-06-30T00:28:27.602Z,963.89
2018-06-30T00:29:27.576Z,963.89
2018-06-30T00:30:27.606Z,963.89
2018-06-30T00:31:27.582Z,963.88
2018-06-30T00:32:27.584Z,963.81
2018-06-30T00:33:27.617Z,963.82
2018-06-30T00:34:27.589Z,963.82
2018-06-30T00:35:27.621Z,963.82
2018-06-30T00:36:27.595Z,963.81
2018-06-30T00:37:27.602Z,963.85
2018-06-30T00:38:27.601Z,963.87
2018-06-30T00:39:27.605Z,963.81
2018-06-30T00:40:27.621Z,963.84
2018-06-30T00:41:27.634Z,963.85
2018-06-30T00:42:27.614Z,963.88
2018-06-30T00:43:27.641Z,963.86
2018-06-30T00:44:27.620Z,963.85
2018-06-30T00:45:27.646Z,963.80
2018-06-30T00:46:27.626Z,963.81
2018-06-30T00:47:27.669Z,963.80
2018-06-30T00:48:27.646Z,963.77
2018-06-30T00:49:27.635Z,963.77
2018-06-30T00:50:27.642Z,963.77
2018-06-30T00:51:27.657Z,963.78
2018-06-30T00:52:27.642Z,963.75
2018-06-30T00:53:27.645Z,963.74
2018-06-30T00:54:27.670Z,963.76
2018-06-30T00:55:27.650Z,963.75
2018-06-30T00:56:27.656Z,963.76
2018-06-30T00:57:27.684Z,963.75
2018-06-30T00:58:27.661Z,963.82
2018-06-30T00:59:27.700Z,963.86
2018-06-30T01:00:27.664Z,963.81
2018-06-30T01:01:27.674Z,963.84
2018-06-30T01:02:27.673Z,963.83
2018-06-30T01:03:27.673Z,963.86
2018-06-30T01:04:27.703Z,963.82
2018-06-30T01:05:27.677Z,963.85
2018-06-30T01:06:27.711Z,963.87
2018-06-30T01:07:27.685Z,963.86
2018-06-30T01:08:27.686Z,963.85
2018-06-30T01:09:27.689Z,963.82
2018-06-30T01:10:27.692Z,963.80
2018-06-30T01:11:27.710Z,963.82
2018-06-30T01:12:27.738Z,963.83
2018-06-30T01:13:27.703Z,963.80
2018-06-30T01:14:27.706Z,963.85
2018-06-30T01:15:27.709Z,963.85
2018-06-30T01:16:27.711Z,963.85
2018-06-30T01:17:27.714Z,963.85
2018-06-30T01:18:27.764Z,963.85
2018-06-30T01:19:27.717Z,963.87
2018-06-30T01:20:27.747Z,963.83
2018-06-30T01:21:27.725Z,963.85
2018-06-30T01:22:27.724Z,963.86
2018-06-30T01:23:27.728Z,963.86
2018-06-30T01:24:27.785Z,963.89
2018-06-30T01:25:27.778Z,963.90
2018-06-30T01:26:27.801Z,963.89
2018-06-30T01:27:27.740Z,963.89
2018-06-30T01:28:27.745Z,963.87
2018-06-30T01:29:27.746Z,963.90
2018-06-30T01:30:27.780Z,963.90
2018-06-30T01:31:27.752Z,963.89
2018-06-30T01:32:27.804Z,963.90
2018-06-30T01:33:27.756Z,963.90
2018-06-30T01:34:27.758Z,963.92
2018-06-30T01:35:27.770Z,963.92
2018-06-30T01:36:27.765Z,963.95
2018-06-30T01:37:27.774Z,963.96
2018-06-30T01:38:27.802Z,963.91
2018-06-30T01:39:27.801Z,963.85
2018-06-30T01:40:27.798Z,963.86
2018-06-30T01:41:27.778Z,963.85
2018-06-30T01:42:27.796Z,963.87
2018-06-30T01:43:27.787Z,963.87
2018-06-30T01:44:27.816Z,963.86
2018-06-30T01:45:27.792Z,963.82
2018-06-30T01:46:27.807Z,963.84
2018-06-30T01:47:27.800Z,963.91
2018-06-30T01:48:27.799Z,963.90
2018-06-30T01:49:27.829Z,963.90
2018-06-30T01:50:27.835Z,963.92
2018-06-30T01:51:27.808Z,963.90
2018-06-30T01:52:27.813Z,963.92
2018-06-30T01:53:27.815Z,963.90
2018-06-30T01:54:27.817Z,963.88
2018-06-30T01:55:27.819Z,963.88
2018-06-30T01:56:27.823Z,963.89
2018-06-30T01:57:27.829Z,963.90
2018-06-30T01:58:27.841Z,963.90
2018-06-30T01:59:27.858Z,963.87
2018-06-30T02:00:27.836Z,963.89
2018-06-30T02:01:27.842Z,963.90
2018-06-30T02:02:27.841Z,963.90
2018-06-30T02:03:27.874Z,963.92
2018-06-30T02:04:27.872Z,963.86
2018-06-30T02:05:27.889Z,963.88
2018-06-30T02:06:27.887Z,963.91
2018-06-30T02:07:27.865Z,963.89
2018-06-30T02:08:27.861Z,963.91
2018-06-30T02:09:27.887Z,963.91
2018-06-30T02:10:27.869Z,963.91
2018-06-30T02:11:27.876Z,963.93
2018-06-30T02:12:27.874Z,963.97
2018-06-30T02:13:27.907Z,963.97
2018-06-30T02:14:27.883Z,963.97
2018-06-30T02:15:27.912Z,963.97
2018-06-30T02:16:27.893Z,963.95
2018-06-30T02:17:27.926Z,963.94
2018-06-30T02:18:27.897Z,963.93
2018-06-30T02:19:27.901Z,963.91
2018-06-30T02:20:27.902Z,963.91
2018-06-30T02:21:27.905Z,963.84
2018-06-30T02:22:27.907Z,963.87
2018-06-30T02:23:27.909Z,963.90
2018-06-30T02:24:27.915Z,963.90
2018-06-30T02:25:27.916Z,963.89
2018-06-30T02:26:27.923Z,963.88
2018-06-30T02:27:27.949Z,963.87
2018-06-30T02:28:27.926Z,963.90
2018-06-30T02:29:27.944Z,963.92
2018-06-30T02:30:27.959Z,963.87
2018-06-30T02:31:27.948Z,963.89
2018-06-30T02:32:27.965Z,963.89
2018-06-30T02:33:27.956Z,963.87
2018-06-30T02:34:27.945Z,963.88
2018-06-30T02:35:27.950Z,963.84
2018-06-30T02:36:27.994Z,963.86
2018-06-30T02:37:27.955Z,963.86
2018-06-30T02:38:27.959Z,963.84
2018-06-30T02:39:27.964Z,963.86
2018-06-30T02:40:27.968Z,963.84
2018-06-30T02:41:27.973Z,963.83
2018-06-30T02:42:27.992Z,963.88
2018-06-30T02:43:27.975Z,963.85
2018-06-30T02:44:27.982Z,963.88
2018-06-30T02:45:28.019Z,963.87
2018-06-30T02:46:27.982Z,963.85
2018-06-30T02:47:28.004Z,963.85
2018-06-30T02:48:27.998Z,963.87
2018-06-30T02:49:28.017Z,963.82
2018-06-30T02:50:27.998Z,963.84
2018-06-30T02:51:28.006Z,963.81
2018-06-30T02:52:28.006Z,963.85
2018-06-30T02:53:28.010Z,963.80
2018-06-30T02:54:28.042Z,963.86
2018-06-30T02:55:28.015Z,963.83
2018-06-30T02:56:28.050Z,963.89
2018-06-30T02:57:28.022Z,963.84
2018-06-30T02:58:28.029Z,963.90
2018-06-30T02:59:28.029Z,963.87
2018-06-30T03:00:28.030Z,963.88
2018-06-30T03:01:28.063Z,963.91
2018-06-30T03:02:28.036Z,963.90
2018-06-30T03:03:28.040Z,963.86
2018-06-30T03:04:28.044Z,963.86
2018-06-30T03:05:28.048Z,963.84
2018-06-30T03:06:28.049Z,963.84
2018-06-30T03:07:28.051Z,963.81
2018-06-30T03:08:28.055Z,963.80
2018-06-30T03:09:28.058Z,963.80
2018-06-30T03:10:28.063Z,963.79
2018-06-30T03:11:28.065Z,963.79
2018-06-30T03:12:28.092Z,963.84
2018-06-30T03:13:28.072Z,963.84
2018-06-30T03:14:28.075Z,963.80
2018-06-30T03:15:28.080Z,963.82
2018-06-30T03:16:28.098Z,963.85
2018-06-30T03:17:28.117Z,963.82
2018-06-30T03:18:28.085Z,963.85
2018-06-30T03:19:28.090Z,963.84
2018-06-30T03:20:28.097Z,963.85
2018-06-30T03:21:28.096Z,963.82
2018-06-30T03:22:28.128Z,963.80
2018-06-30T03:23:28.105Z,963.87
2018-06-30T03:24:28.132Z,963.85
2018-06-30T03:25:28.129Z,963.87
2018-06-30T03:26:28.112Z,963.91
2018-06-30T03:27:28.135Z,963.89
2018-06-30T03:28:28.118Z,963.93
2018-06-30T03:29:28.124Z,963.92
2018-06-30T03:30:28.125Z,963.94
2018-06-30T03:31:28.227Z,963.96
2018-06-30T03:32:28.166Z,963.95
2018-06-30T03:33:28.135Z,963.91
2018-06-30T03:34:28.166Z,963.93
2018-06-30T03:35:28.208Z,963.93
2018-06-30T03:36:28.213Z,963.93
2018-06-30T03:37:28.146Z,963.91
2018-06-30T03:38:28.160Z,963.91
2018-06-30T03:39:28.152Z,963.94
2018-06-30T03:40:28.156Z,963.92
2018-06-30T03:41:28.159Z,963.91
2018-06-30T03:42:28.162Z,963.93
2018-06-30T03:43:28.165Z,963.96
2018-06-30T03:44:28.171Z,963.90
2018-06-30T03:45:28.171Z,963.95
2018-06-30T03:46:28.173Z,963.92
2018-06-30T03:47:28.198Z,963.93
2018-06-30T03:48:28.179Z,963.92
2018-06-30T03:49:28.190Z,963.93
2018-06-30T03:50:28.201Z,963.93
2018-06-30T03:51:28.201Z,963.99
2018-06-30T03:52:28.220Z,963.93
2018-06-30T03:53:28.194Z,963.96
2018-06-30T03:54:28.196Z,963.93
2018-06-30T03:55:28.228Z,964.00
2018-06-30T03:56:28.202Z,964.01
2018-06-30T03:57:28.207Z,963.96
2018-06-30T03:58:28.216Z,964.03
2018-06-30T03:59:28.244Z,964.00
2018-06-30T04:00:28.236Z,964.00
2018-06-30T04:01:28.218Z,964.02
2018-06-30T04:02:28.222Z,964.03
2018-06-30T04:03:28.223Z,964.03
2018-06-30T04:04:28.227Z,964.05
2018-06-30T04:05:28.281Z,964.04
2018-06-30T04:06:28.230Z,964.00
2018-06-30T04:07:28.265Z,964.04
2018-06-30T04:08:28.240Z,964.03
2018-06-30T04:09:28.268Z,964.02
2018-06-30T04:10:28.242Z,964.00
2018-06-30T04:11:28.248Z,964.03
2018-06-30T04:12:28.247Z,964.04
2018-06-30T04:13:28.250Z,963.99
2018-06-30T04:14:28.275Z,963.99
2018-06-30T04:15:28.279Z,964.01
2018-06-30T04:16:28.262Z,964.01
2018-06-30T04:17:28.277Z,964.05
2018-06-30T04:18:28.289Z,964.02
2018-06-30T04:19:28.265Z,964.04
2018-06-30T04:20:28.270Z,964.03
2018-06-30T04:21:28.274Z,964.03
2018-06-30T04:22:28.276Z,964.07
2018-06-30T04:23:28.309Z,964.06
2018-06-30T04:24:28.306Z,964.09
2018-06-30T04:25:28.340Z,964.08
2018-06-30T04:26:28.289Z,964.09
2018-06-30T04:27:28.288Z,964.11
2018-06-30T04:28:28.292Z,964.05
2018-06-30T04:29:28.293Z,964.13
2018-06-30T04:30:28.309Z,964.09
2018-06-30T04:31:48.991Z,964.10
2018-06-30T04:32:49.118Z,964.07
2018-06-30T04:34:42.676Z,964.11
2018-06-30T04:35:42.308Z,964.11
2018-06-30T04:37:36.072Z,964.10
2018-06-30T04:38:35.739Z,964.08
2018-06-30T04:40:28.739Z,964.14
2018-06-30T04:41:28.707Z,964.11
2018-06-30T04:43:22.218Z,964.16
2018-06-30T04:44:22.129Z,964.15
2018-06-30T04:46:15.273Z,964.18
2018-06-30T04:47:15.026Z,964.20
2018-06-30T04:49:07.893Z,964.14
2018-06-30T04:50:07.915Z,964.20
2018-06-30T04:52:00.964Z,964.19
2018-06-30T04:53:00.777Z,964.22
2018-06-30T04:54:00.777Z,964.23
2018-06-30T04:55:00.544Z,964.24
2018-06-30T04:56:00.530Z,964.23
2018-06-30T04:57:00.529Z,964.22
2018-06-30T04:58:00.533Z,964.22
2018-06-30T04:59:00.571Z,964.23
2018-06-30T05:00:00.538Z,964.24
2018-06-30T05:01:00.540Z,964.21
2018-06-30T05:02:00.543Z,964.21
2018-06-30T05:03:00.543Z,964.27
2018-06-30T05:04:00.621Z,964.21
2018-06-30T05:05:00.592Z,964.19
2018-06-30T05:06:00.589Z,964.21
2018-06-30T05:07:00.560Z,964.23
2018-06-30T05:08:00.581Z,964.24
2018-06-30T05:09:00.562Z,964.22
2018-06-30T05:10:00.565Z,964.25
2018-06-30T05:11:00.565Z,964.26
2018-06-30T05:12:00.602Z,964.27
2018-06-30T05:13:00.594Z,964.27
2018-06-30T05:14:00.580Z,964.29
2018-06-30T05:15:00.580Z,964.27
2018-06-30T05:16:00.582Z,964.29
2018-06-30T05:17:00.615Z,964.35
2018-06-30T05:18:00.588Z,964.30
2018-06-30T05:19:00.591Z,964.32
2018-06-30T05:20:00.593Z,964.32
2018-06-30T05:21:00.595Z,964.29
2018-06-30T05:22:00.620Z,964.34
2018-06-30T05:23:00.602Z,964.28
2018-06-30T05:24:00.602Z,964.27
2018-06-30T05:25:00.610Z,964.32
2018-06-30T05:26:00.686Z,964.31
2018-06-30T05:27:00.611Z,964.35
2018-06-30T05:28:00.615Z,964.36
2018-06-30T05:29:00.641Z,964.37
2018-06-30T05:30:00.639Z,964.36
2018-06-30T05:31:00.618Z,964.37
2018-06-30T05:32:00.630Z,964.37
2018-06-30T05:33:00.630Z,964.40
2018-06-30T05:34:00.630Z,964.38
2018-06-30T05:35:00.630Z,964.38
2018-06-30T05:36:00.633Z,964.43
2018-06-30T05:37:00.693Z,964.41
2018-06-30T05:38:00.643Z,964.43
2018-06-30T05:39:00.639Z,964.46
2018-06-30T05:40:00.653Z,964.41
2018-06-30T05:41:00.645Z,964.45
2018-06-30T05:42:00.673Z,964.43
2018-06-30T05:43:00.658Z,964.48
2018-06-30T05:44:00.651Z,964.46
2018-06-30T05:45:00.688Z,964.49
2018-06-30T05:46:00.683Z,964.52
2018-06-30T05:47:00.658Z,964.45
2018-06-30T05:48:00.662Z,964.47
2018-06-30T05:49:00.668Z,964.45
2018-06-30T05:50:00.668Z,964.44
2018-06-30T05:51:00.668Z,964.48
2018-06-30T05:52:00.678Z,964.48
2018-06-30T05:53:00.678Z,964.51
2018-06-30T05:54:00.709Z,964.50
2018-06-30T05:55:00.678Z,964.52
2018-06-30T05:56:00.704Z,964.53
2018-06-30T05:57:00.685Z,964.53
2018-06-30T05:58:00.722Z,964.51
2018-06-30T05:59:00.690Z,964.53
2018-06-30T06:00:00.692Z,964.48
2018-06-30T06:01:00.741Z,964.54
2018-06-30T06:02:00.695Z,964.53
2018-06-30T06:03:00.698Z,964.50
2018-06-30T06:04:00.701Z,964.50
2018-06-30T06:05:00.704Z,964.49
2018-06-30T06:06:00.746Z,964.49
2018-06-30T06:07:00.736Z,964.52
2018-06-30T06:08:00.712Z,964.56
2018-06-30T06:09:00.713Z,964.52
2018-06-30T06:10:00.835Z,964.63
2018-06-30T06:11:00.722Z,964.53
2018-06-30T06:12:00.722Z,964.51
2018-06-30T06:13:00.724Z,964.50
2018-06-30T06:14:00.748Z,964.47
2018-06-30T06:15:00.782Z,964.49
2018-06-30T06:16:00.763Z,964.46
2018-06-30T06:17:00.759Z,964.55
2018-06-30T06:18:00.739Z,964.52
2018-06-30T06:19:00.741Z,964.53
2018-06-30T06:20:00.777Z,964.51
2018-06-30T06:21:00.747Z,964.47
2018-06-30T06:22:00.751Z,964.52
2018-06-30T06:23:00.755Z,964.53
2018-06-30T06:24:00.765Z,964.58
2018-06-30T06:25:00.788Z,964.56
2018-06-30T06:26:00.848Z,964.59
2018-06-30T06:27:00.796Z,964.64
2018-06-30T06:28:00.800Z,964.61
2018-06-30T06:29:00.811Z,964.64
2018-06-30T06:30:00.804Z,964.66
2018-06-30T06:31:00.778Z,964.65
2018-06-30T06:32:00.783Z,964.61
2018-06-30T06:33:00.808Z,964.64
2018-06-30T06:34:00.814Z,964.65
2018-06-30T06:35:00.829Z,964.64
2018-06-30T06:36:00.801Z,964.69
2018-06-30T06:37:00.800Z,964.69
2018-06-30T06:38:00.842Z,964.74
2018-06-30T06:39:00.807Z,964.74
2018-06-30T06:40:00.848Z,964.74
2018-06-30T06:41:00.836Z,964.71
2018-06-30T06:42:00.826Z,964.68
2018-06-30T06:43:00.818Z,964.66
2018-06-30T06:44:00.852Z,964.70
2018-06-30T06:45:00.851Z,964.66
2018-06-30T06:46:00.854Z,964.71
2018-06-30T06:47:00.860Z,964.72
2018-06-30T06:48:00.838Z,964.75
2018-06-30T06:49:00.841Z,964.71
2018-06-30T06:50:00.846Z,964.75
2018-06-30T06:51:00.882Z,964.75
2018-06-30T06:52:00.910Z,964.73
2018-06-30T06:53:00.871Z,964.73
2018-06-30T06:54:00.863Z,964.77
2018-06-30T06:55:00.938Z,964.80
2018-06-30T06:56:00.936Z,964.86
2018-06-30T06:57:00.947Z,964.79
2018-06-30T06:58:00.906Z,964.83
2018-06-30T06:59:00.912Z,964.82
2018-06-30T07:00:00.892Z,964.90
2018-06-30T07:01:00.927Z,964.86
2018-06-30T07:02:00.908Z,964.90
2018-06-30T07:03:01.000Z,964.80
2018-06-30T07:04:01.020Z,964.91
2018-06-30T07:05:00.920Z,964.93
2018-06-30T07:06:00.940Z,964.95
2018-06-30T07:07:00.961Z,964.91
2018-06-30T07:08:01.026Z,964.91
2018-06-30T07:09:00.978Z,964.91
2018-06-30T07:10:01.008Z,964.91
2018-06-30T07:11:00.961Z,964.98
2018-06-30T07:12:01.035Z,964.93
2018-06-30T07:13:01.024Z,964.87
2018-06-30T07:14:00.990Z,964.83
2018-06-30T07:15:00.962Z,964.87
2018-06-30T07:16:00.973Z,964.88
2018-06-30T07:17:00.996Z,964.86
2018-06-30T07:18:01.156Z,964.88
2018-06-30T07:19:01.072Z,964.89
2018-06-30T07:20:01.111Z,964.93
2018-06-30T07:21:01.154Z,964.91
2018-06-30T07:22:01.119Z,964.92
2018-06-30T07:23:01.724Z,964.90
2018-06-30T07:24:01.066Z,964.91
2018-06-30T07:25:01.131Z,964.88
2018-06-30T07:26:01.120Z,965.00
2018-06-30T07:27:01.135Z,964.92
2018-06-30T07:28:01.066Z,964.86
2018-06-30T07:29:01.320Z,964.97
2018-06-30T07:30:02.588Z,965.03
2018-06-30T07:31:03.400Z,965.00
2018-06-30T07:32:01.050Z,965.06
2018-06-30T07:33:01.092Z,965.08
2018-06-30T07:34:01.067Z,965.00
2018-06-30T07:35:01.098Z,965.12
2018-06-30T07:36:01.069Z,965.09
2018-06-30T07:37:01.105Z,965.15
2018-06-30T07:38:01.082Z,965.13
2018-06-30T07:39:01.237Z,965.03
2018-06-30T07:40:01.092Z,965.15
2018-06-30T07:41:01.138Z,964.93
2018-06-30T07:42:01.161Z,965.02
2018-06-30T07:43:01.112Z,965.01
2018-06-30T07:44:01.132Z,965.02
2018-06-30T07:45:01.118Z,965.03
2018-06-30T07:46:01.211Z,965.01
2018-06-30T07:47:01.295Z,965.04
2018-06-30T07:48:01.139Z,965.06
2018-06-30T07:49:01.148Z,965.20
2018-06-30T07:50:01.165Z,965.06
2018-06-30T07:51:01.191Z,965.16
2018-06-30T07:52:01.164Z,965.03
2018-06-30T07:53:01.169Z,965.02
2018-06-30T07:54:01.237Z,964.98
2018-06-30T07:55:01.210Z,965.00
2018-06-30T07:56:01.218Z,965.02
2018-06-30T07:57:01.209Z,964.95
2018-06-30T07:58:01.205Z,965.10
2018-06-30T07:59:01.201Z,965.11
2018-06-30T08:00:01.213Z,965.18
2018-06-30T08:01:01.237Z,965.10
2018-06-30T08:02:01.240Z,964.98
2018-06-30T08:03:01.226Z,964.88
2018-06-30T08:04:01.232Z,964.90
2018-06-30T08:05:01.237Z,964.96
2018-06-30T08:06:01.241Z,965.04
2018-06-30T08:07:01.267Z,964.99
2018-06-30T08:08:01.281Z,965.00
2018-06-30T08:09:01.270Z,965.23
2018-06-30T08:10:01.285Z,965.19
2018-06-30T08:11:01.306Z,965.05
2018-06-30T08:12:01.284Z,965.14
2018-06-30T08:13:01.319Z,965.20
2018-06-30T08:14:01.292Z,965.22
2018-06-30T08:15:01.321Z,965.17
2018-06-30T08:16:01.354Z,965.26
2018-06-30T08:17:01.315Z,965.27
2018-06-30T08:18:01.324Z,965.19
2018-06-30T08:19:01.352Z,965.24
2018-06-30T08:20:01.330Z,965.26
2018-06-30T08:21:01.359Z,965.24
2018-06-30T08:22:01.347Z,965.25
2018-06-30T08:23:01.356Z,965.28
2018-06-30T08:24:01.389Z,965.28
2018-06-30T08:25:01.382Z,965.25
2018-06-30T08:26:01.374Z,965.29
2018-06-30T08:27:01.378Z,965.31
2018-06-30T08:28:01.396Z,965.32
2018-06-30T08:29:01.412Z,965.26
2018-06-30T08:30:01.431Z,965.30
2018-06-30T08:31:01.464Z,965.29
2018-06-30T08:32:01.413Z,965.32
2018-06-30T08:33:01.424Z,965.30
2018-06-30T08:34:08.816Z,965.31
2018-06-30T08:35:55.795Z,965.37
2018-06-30T08:36:55.080Z,965.35
2018-06-30T08:38:49.022Z,965.39
2018-06-30T08:39:48.996Z,965.42
2018-06-30T08:41:41.965Z,965.41
2018-06-30T08:42:50.010Z,965.39
2018-06-30T08:44:37.250Z,965.39
2018-06-30T08:45:36.588Z,965.34
2018-06-30T08:47:29.892Z,965.32
2018-06-30T08:48:30.034Z,965.32
2018-06-30T08:50:23.468Z,965.29
2018-06-30T08:51:23.307Z,965.25
2018-06-30T08:53:16.861Z,965.24
2018-06-30T08:54:16.685Z,965.25
2018-06-30T08:56:10.391Z,965.22
2018-06-30T08:57:10.290Z,965.19
2018-06-30T08:58:10.081Z,965.25
2018-06-30T08:59:10.218Z,965.25
2018-06-30T09:00:09.955Z,965.27
2018-06-30T09:01:10.033Z,965.25
2018-06-30T09:02:10.949Z,965.29
2018-06-30T09:03:09.972Z,965.27
2018-06-30T09:04:09.953Z,965.29
2018-06-30T09:05:09.978Z,965.35
2018-06-30T09:06:10.064Z,965.27
2018-06-30T09:07:10.015Z,965.29
2018-06-30T09:08:09.999Z,965.31
2018-06-30T09:09:10.001Z,965.28
2018-06-30T09:10:10.008Z,965.30
2018-06-30T09:11:10.038Z,965.28
2018-06-30T09:12:10.039Z,965.29
2018-06-30T09:13:10.082Z,965.25
2018-06-30T09:14:10.039Z,965.20
2018-06-30T09:15:10.048Z,965.23
2018-06-30T09:16:10.129Z,965.20
2018-06-30T09:17:10.098Z,965.18
2018-06-30T09:18:10.109Z,965.15
2018-06-30T09:19:10.101Z,965.24
2018-06-30T09:20:10.116Z,965.24
2018-06-30T09:21:10.095Z,965.22
2018-06-30T09:22:10.159Z,965.24
2018-06-30T09:23:10.108Z,965.20
2018-06-30T09:24:10.196Z,965.21
2018-06-30T09:25:10.135Z,965.21
2018-06-30T09:26:10.136Z,965.23
2018-06-30T09:27:10.137Z,965.17
2018-06-30T09:28:10.141Z,965.20
2018-06-30T09:29:10.158Z,965.14
2018-06-30T09:30:10.158Z,965.20
2018-06-30T09:31:10.198Z,965.21
2018-06-30T09:32:10.172Z,965.23
2018-06-30T09:33:10.179Z,965.23
2018-06-30T09:34:10.206Z,965.28
2018-06-30T09:35:10.212Z,965.26
2018-06-30T09:36:10.233Z,965.21
2018-06-30T09:37:10.204Z,965.24
2018-06-30T09:38:10.213Z,965.25
2018-06-30T09:39:10.223Z,965.24
2018-06-30T09:40:10.247Z,965.19
2018-06-30T09:41:10.277Z,965.26
2018-06-30T09:42:10.272Z,965.21
2018-06-30T09:43:10.296Z,965.23
2018-06-30T09:44:10.288Z,965.26
2018-06-30T09:45:10.296Z,965.19
2018-06-30T09:46:10.265Z,965.18
2018-06-30T09:47:10.296Z,965.17
2018-06-30T09:48:10.280Z,965.25
2018-06-30T09:49:10.283Z,965.33
2018-06-30T09:50:10.292Z,965.32
2018-06-30T09:51:10.331Z,965.27
2018-06-30T09:52:10.307Z,965.24
2018-06-30T09:53:10.310Z,965.31
2018-06-30T09:54:10.345Z,965.43
2018-06-30T09:55:10.354Z,965.48
2018-06-30T09:56:19.510Z,965.45
2018-06-30T09:58:04.062Z,965.43
2018-06-30T09:59:04.188Z,965.40
2018-06-30T10:00:56.938Z,965.42
2018-06-30T10:01:57.006Z,965.40
2018-06-30T10:03:50.037Z,965.39
2018-06-30T10:04:50.368Z,965.43
2018-06-30T10:06:44.361Z,965.42
2018-06-30T10:07:43.231Z,965.39
2018-06-30T10:08:43.139Z,965.33
2018-06-30T10:09:43.300Z,965.36
2018-06-30T10:10:43.620Z,965.40
2018-06-30T10:11:42.995Z,965.39
2018-06-30T10:12:43.003Z,965.36
2018-06-30T10:13:43.014Z,965.34
2018-06-30T10:14:43.068Z,965.35
2018-06-30T10:15:43.080Z,965.30
2018-06-30T10:16:51.289Z,965.30
2018-06-30T10:18:36.155Z,965.33
2018-06-30T10:19:36.376Z,965.33
2018-06-30T10:21:29.232Z,965.39
2018-06-30T10:22:29.319Z,965.41
2018-06-30T10:24:22.677Z,965.36
2018-06-30T10:25:22.458Z,965.40
2018-06-30T10:27:16.027Z,965.40
2018-06-30T10:28:15.844Z,965.34
2018-06-30T10:30:21.414Z,965.28
2018-06-30T10:31:21.453Z,965.33
2018-06-30T10:33:14.670Z,965.32
2018-06-30T10:34:14.962Z,965.30
2018-06-30T10:36:08.316Z,965.35
2018-06-30T10:37:08.055Z,965.31
2018-06-30T10:39:02.096Z,965.31
2018-06-30T10:40:02.028Z,965.25
2018-06-30T10:41:01.845Z,965.21
2018-06-30T10:42:03.048Z,965.21
2018-06-30T10:43:03.519Z,965.19
2018-06-30T10:44:01.827Z,965.21
2018-06-30T10:45:01.810Z,965.25
2018-06-30T10:46:01.837Z,965.23
2018-06-30T10:47:01.825Z,965.21
2018-06-30T10:48:03.327Z,965.21
2018-06-30T10:49:01.858Z,965.20
2018-06-30T10:50:03.828Z,965.14
2018-06-30T10:51:01.907Z,965.14
2018-06-30T10:52:01.881Z,965.16
2018-06-30T10:53:01.928Z,965.15
2018-06-30T10:54:01.893Z,965.12
2018-06-30T10:55:01.871Z,965.15
2018-06-30T10:56:01.882Z,965.16
2018-06-30T10:57:01.893Z,965.11
2018-06-30T10:58:01.961Z,965.16
2018-06-30T10:59:01.905Z,965.09
2018-06-30T11:00:01.953Z,965.09
2018-06-30T11:01:01.931Z,965.19
2018-06-30T11:02:01.929Z,965.09
2018-06-30T11:03:01.922Z,965.07
2018-06-30T11:04:01.941Z,965.14
2018-06-30T11:05:01.950Z,965.20
2018-06-30T11:06:01.952Z,965.18
2018-06-30T11:07:04.233Z,965.16
2018-06-30T11:08:01.959Z,965.12
2018-06-30T11:09:02.100Z,965.13
2018-06-30T11:10:04.886Z,965.09
2018-06-30T11:11:02.107Z,965.14
2018-06-30T11:12:03.914Z,965.08
2018-06-30T11:13:02.040Z,965.15
2018-06-30T11:14:01.993Z,965.15
2018-06-30T11:15:01.998Z,965.16
2018-06-30T11:16:02.060Z,965.12
2018-06-30T11:17:02.044Z,965.08
2018-06-30T11:18:03.837Z,965.11
2018-06-30T11:19:02.030Z,965.06
2018-06-30T11:20:03.933Z,965.05
2018-06-30T11:21:02.065Z,964.99
2018-06-30T11:22:02.046Z,964.92
2018-06-30T11:23:02.154Z,964.91
2018-06-30T11:24:03.889Z,964.89
2018-06-30T11:25:02.214Z,964.87
2018-06-30T11:26:02.079Z,964.87
2018-06-30T11:27:02.108Z,964.87
2018-06-30T11:28:02.128Z,964.89
2018-06-30T11:29:02.115Z,964.90
2018-06-30T11:30:02.098Z,964.89
2018-06-30T11:31:02.144Z,964.88
2018-06-30T11:32:02.107Z,964.88
2018-06-30T11:33:02.113Z,964.88
2018-06-30T11:34:02.147Z,964.89
2018-06-30T11:35:02.157Z,964.88
2018-06-30T11:36:02.135Z,964.89
2018-06-30T11:37:02.145Z,964.84
2018-06-30T11:38:02.147Z,964.84
2018-06-30T11:39:02.153Z,964.85
2018-06-30T11:40:02.224Z,964.96
2018-06-30T11:41:02.179Z,964.92
2018-06-30T11:42:02.173Z,964.90
2018-06-30T11:43:02.198Z,964.87
2018-06-30T11:44:02.188Z,964.82
2018-06-30T11:45:02.222Z,964.84
2018-06-30T11:46:02.218Z,964.85
2018-06-30T11:47:02.208Z,964.82
2018-06-30T11:48:02.497Z,964.80
2018-06-30T11:49:02.240Z,964.79
2018-06-30T11:50:02.261Z,964.79
2018-06-30T11:51:02.253Z,964.75
2018-06-30T11:52:02.246Z,964.74
2018-06-30T11:53:02.270Z,964.78
2018-06-30T11:54:02.256Z,964.73
2018-06-30T11:55:02.317Z,964.70
2018-06-30T11:56:02.338Z,964.76
2018-06-30T11:57:02.278Z,964.70
2018-06-30T11:58:02.281Z,964.70
2018-06-30T11:59:02.291Z,964.68
2018-06-30T12:00:02.302Z,964.71
2018-06-30T12:01:02.338Z,964.72
2018-06-30T12:02:02.381Z,964.70
2018-06-30T12:03:02.347Z,964.75
2018-06-30T12:04:02.347Z,964.74
2018-06-30T12:05:02.327Z,964.74
2018-06-30T12:06:02.360Z,964.69
2018-06-30T12:07:02.366Z,964.77
2018-06-30T12:08:02.372Z,964.73
2018-06-30T12:09:02.400Z,964.76
2018-06-30T12:10:02.367Z,964.88
2018-06-30T12:11:02.366Z,964.80
2018-06-30T12:12:02.403Z,964.76
2018-06-30T12:13:02.381Z,964.72
2018-06-30T12:14:02.408Z,964.68
2018-06-30T12:15:02.393Z,964.70
2018-06-30T12:16:02.399Z,964.69
2018-06-30T12:17:02.404Z,964.75
2018-06-30T12:18:02.416Z,964.75
2018-06-30T12:19:02.416Z,964.73
2018-06-30T12:20:02.426Z,964.73
2018-06-30T12:21:02.433Z,964.74
2018-06-30T12:22:02.485Z,964.79
2018-06-30T12:23:02.454Z,964.80
2018-06-30T12:24:02.479Z,964.83
2018-06-30T12:25:02.454Z,964.81
2018-06-30T12:26:02.471Z,964.77
2018-06-30T12:27:02.468Z,964.75
2018-06-30T12:28:04.387Z,964.73
2018-06-30T12:29:02.521Z,964.77
2018-06-30T12:30:02.491Z,964.78
2018-06-30T12:31:02.502Z,964.70
2018-06-30T12:32:02.558Z,964.76
2018-06-30T12:33:02.507Z,964.76
2018-06-30T12:34:02.681Z,964.71
2018-06-30T12:35:02.581Z,964.68
2018-06-30T12:36:02.566Z,964.68
2018-06-30T12:37:02.537Z,964.82
2018-06-30T12:38:02.539Z,964.81
2018-06-30T12:39:02.552Z,964.80
2018-06-30T12:40:02.559Z,964.73
2018-06-30T12:41:02.559Z,964.72
2018-06-30T12:42:02.564Z,964.70
2018-06-30T12:43:02.572Z,964.72
2018-06-30T12:44:02.590Z,964.70
2018-06-30T12:45:02.628Z,964.76
2018-06-30T12:46:02.629Z,964.64
2018-06-30T12:47:02.601Z,964.66
2018-06-30T12:48:02.662Z,964.63
2018-06-30T12:49:02.625Z,964.64
2018-06-30T12:50:02.620Z,964.72
2018-06-30T12:51:02.629Z,964.66
2018-06-30T12:52:02.689Z,964.69
2018-06-30T12:53:02.657Z,964.71